createdAt,value
2022-12-23T00:01:16.164Z,90.74
2022-12-23T00:03:45.357Z,90.67
2022-12-23T00:06:18.357Z,90.76
2022-12-23T00:08:47.839Z,90.59
2022-12-23T00:11:21.497Z,90.51
2022-12-23T00:14:07.528Z,90.36
2022-12-23T00:16:39.480Z,90.39
2022-12-23T00:19:08.244Z,90.46
2022-12-23T00:21:37.060Z,90.32
2022-12-23T00:24:06.549Z,90.21
2022-12-23T00:26:35.370Z,90.18
2022-12-23T00:29:04.249Z,90.15
2022-12-23T00:31:32.872Z,90.30
2022-12-23T00:34:02.885Z,90.29
2022-12-23T00:36:32.456Z,90.30
2022-12-23T00:39:29.748Z,90.17
2022-12-23T00:42:15.649Z,90.16
2022-12-23T00:44:44.318Z,90.11
2022-12-23T00:47:33.264Z,90.23
2022-12-23T00:50:03.585Z,90.45
2022-12-23T00:52:32.924Z,90.34
2022-12-23T00:55:01.575Z,90.42
2022-12-23T00:57:31.677Z,90.34
2022-12-23T01:00:00.286Z,90.20
2022-12-23T01:02:46.617Z,90.26
2022-12-23T01:08:22.706Z,90.22
2022-12-23T01:10:51.605Z,90.08
2022-12-23T01:13:21.203Z,90.00
2022-12-23T01:15:50.074Z,90.00
2022-12-23T01:18:18.818Z,90.02
2022-12-23T01:20:47.502Z,89.80
2022-12-23T01:23:16.236Z,89.87
2022-12-23T01:25:48.122Z,89.82
2022-12-23T01:28:16.759Z,89.73
2022-12-23T01:30:45.412Z,89.81
2022-12-23T01:33:14.225Z,89.90
2022-12-23T01:35:42.945Z,89.85
2022-12-23T01:38:11.678Z,89.70
2022-12-23T01:40:43.655Z,89.83
2022-12-23T01:43:16.810Z,89.85
2022-12-23T01:45:46.070Z,89.92
2022-12-23T01:48:19.941Z,89.79
2022-12-23T01:50:56.199Z,89.83
2022-12-23T01:53:31.381Z,89.87
2022-12-23T01:56:07.983Z,89.91
2022-12-23T01:58:43.447Z,89.99
2022-12-23T02:01:30.995Z,89.70
2022-12-23T02:04:04.111Z,89.69
2022-12-23T02:06:54.469Z,89.77
2022-12-23T02:09:26.919Z,89.65
2022-12-23T02:12:32.141Z,89.76
2022-12-23T02:15:36.948Z,89.80
2022-12-23T02:18:23.196Z,89.84
2022-12-23T02:21:23.383Z,89.81
2022-12-23T02:24:36.485Z,89.83
2022-12-23T02:27:20.173Z,89.85
2022-12-23T02:30:42.145Z,90.07
2022-12-23T02:33:52.725Z,90.00
2022-12-23T02:36:40.471Z,90.21
2022-12-23T02:39:20.293Z,90.13
2022-12-23T02:41:58.813Z,90.15
2022-12-23T02:44:39.178Z,90.11
2022-12-23T02:47:16.013Z,90.17
2022-12-23T02:49:54.870Z,90.23
2022-12-23T02:52:30.547Z,90.11
2022-12-23T02:55:06.440Z,90.04
2022-12-23T02:57:42.266Z,90.08
2022-12-23T03:00:13.518Z,90.30
2022-12-23T03:02:45.329Z,89.89
2022-12-23T03:05:28.494Z,89.87
2022-12-23T03:08:04.178Z,89.83
2022-12-23T03:10:57.325Z,89.72
2022-12-23T03:13:43.769Z,89.71
2022-12-23T03:16:23.413Z,89.66
2022-12-23T03:19:12.489Z,89.74
2022-12-23T03:21:49.287Z,89.89
2022-12-23T03:24:30.943Z,89.66
2022-12-23T03:27:09.933Z,89.46
2022-12-23T03:29:46.886Z,89.37
2022-12-23T03:32:18.210Z,89.52
2022-12-23T03:34:53.047Z,89.46
2022-12-23T03:37:25.547Z,89.49
2022-12-23T03:40:02.434Z,89.58
2022-12-23T03:42:38.582Z,89.60
2022-12-23T03:48:11.026Z,89.29
2022-12-23T03:50:44.324Z,89.32
2022-12-23T03:53:21.373Z,89.31
2022-12-23T03:55:57.101Z,89.17
2022-12-23T03:58:36.617Z,89.43
2022-12-23T04:01:18.002Z,89.49
2022-12-23T04:03:58.701Z,89.49
2022-12-23T04:06:37.571Z,89.46
2022-12-23T04:09:08.865Z,89.54
2022-12-23T04:11:38.842Z,89.50
2022-12-23T04:14:09.083Z,89.53
2022-12-23T04:16:38.231Z,89.43
2022-12-23T04:19:06.892Z,89.29
2022-12-23T04:21:36.934Z,89.31
2022-12-23T04:24:06.144Z,89.45
2022-12-23T04:26:34.795Z,89.21
2022-12-23T04:29:03.630Z,89.28
2022-12-23T04:31:32.562Z,89.30
2022-12-23T04:34:01.230Z,89.39
2022-12-23T04:36:29.938Z,89.57
2022-12-23T04:38:59.994Z,89.59
2022-12-23T04:41:28.700Z,89.26
2022-12-23T04:43:57.383Z,89.52
2022-12-23T04:46:26.148Z,89.67
2022-12-23T04:48:54.916Z,89.63
2022-12-23T04:51:23.815Z,89.60
2022-12-23T04:53:52.484Z,89.53
2022-12-23T04:56:23.078Z,89.83
2022-12-23T04:58:51.791Z,89.61
2022-12-23T05:01:20.606Z,89.66
2022-12-23T05:03:49.262Z,89.79
2022-12-23T05:06:17.932Z,89.37
2022-12-23T05:08:46.588Z,89.43
2022-12-23T05:11:15.272Z,89.51
2022-12-23T05:13:45.269Z,89.83
2022-12-23T05:16:14.041Z,89.52
2022-12-23T05:18:42.767Z,89.62
2022-12-23T05:21:11.633Z,89.73
2022-12-23T05:23:40.606Z,89.77
2022-12-23T05:26:09.941Z,89.59
2022-12-23T05:28:38.754Z,89.57
2022-12-23T05:31:09.940Z,89.66
2022-12-23T05:33:38.834Z,89.60
2022-12-23T05:36:08.708Z,89.90
2022-12-23T05:38:37.324Z,89.63
2022-12-23T05:41:06.754Z,89.69
2022-12-23T05:43:35.483Z,89.61
2022-12-23T05:46:04.414Z,89.61
2022-12-23T05:48:34.615Z,89.69
2022-12-23T05:51:03.262Z,89.40
2022-12-23T05:53:32.209Z,89.60
2022-12-23T05:56:04.248Z,89.30
2022-12-23T05:58:33.066Z,89.69
2022-12-23T06:01:03.933Z,89.89
2022-12-23T06:03:34.281Z,89.86
2022-12-23T06:06:03.112Z,89.76
2022-12-23T06:08:31.845Z,89.59
2022-12-23T06:11:00.554Z,89.84
2022-12-23T06:13:29.172Z,90.10
2022-12-23T06:15:57.766Z,90.08
2022-12-23T06:18:26.461Z,90.11
2022-12-23T06:20:56.514Z,89.78
2022-12-23T06:23:26.375Z,90.00
2022-12-23T06:26:01.167Z,89.83
2022-12-23T06:28:30.677Z,89.84
2022-12-23T06:30:59.754Z,89.84
2022-12-23T06:33:28.455Z,90.14
2022-12-23T06:35:58.636Z,90.22
2022-12-23T06:38:27.609Z,90.33
2022-12-23T06:40:56.272Z,90.80
2022-12-23T06:43:25.047Z,90.51
2022-12-23T06:45:53.860Z,90.11
2022-12-23T06:48:22.704Z,90.34
2022-12-23T06:50:51.384Z,90.06
2022-12-23T06:53:22.322Z,90.28
2022-12-23T06:55:51.052Z,90.99
2022-12-23T06:58:19.769Z,90.74
2022-12-23T07:00:48.482Z,90.74
2022-12-23T07:03:17.489Z,90.91
2022-12-23T07:05:48.984Z,91.12
2022-12-23T07:08:17.761Z,91.14
2022-12-23T07:10:48.078Z,91.11
2022-12-23T07:13:16.859Z,90.63
2022-12-23T07:15:45.518Z,90.99
2022-12-23T07:18:14.216Z,91.09
2022-12-23T07:20:42.890Z,91.17
2022-12-23T07:23:11.529Z,90.78
2022-12-23T07:25:40.177Z,91.47
2022-12-23T07:28:10.357Z,91.36
2022-12-23T07:30:38.980Z,91.31
2022-12-23T07:33:07.664Z,91.25
2022-12-23T07:35:36.464Z,91.31
2022-12-23T07:38:05.353Z,91.14
2022-12-23T07:40:34.017Z,91.37
2022-12-23T07:43:03.029Z,91.06
2022-12-23T07:45:33.072Z,91.14
2022-12-23T07:49:16.011Z,91.07
2022-12-23T07:51:44.665Z,91.31
2022-12-23T07:54:14.586Z,91.33
2022-12-23T07:56:43.267Z,91.48
2022-12-23T07:59:11.909Z,91.63
2022-12-23T08:01:42.092Z,91.74
2022-12-23T08:04:10.856Z,91.59
2022-12-23T08:06:39.441Z,91.32
2022-12-23T08:09:09.548Z,91.31
2022-12-23T08:11:38.349Z,91.47
2022-12-23T08:14:07.200Z,90.59
2022-12-23T08:16:43.034Z,90.54
2022-12-23T08:19:13.761Z,91.12
2022-12-23T08:21:42.506Z,91.36
2022-12-23T08:24:11.295Z,91.52
2022-12-23T08:26:40.084Z,91.40
2022-12-23T08:29:08.854Z,91.25
2022-12-23T08:31:37.507Z,91.49
2022-12-23T08:34:06.262Z,91.80
2022-12-23T08:36:37.793Z,91.59
2022-12-23T08:39:10.828Z,91.65
2022-12-23T08:41:42.683Z,91.75
2022-12-23T08:44:11.945Z,92.26
2022-12-23T08:46:41.869Z,92.38
2022-12-23T08:49:11.909Z,91.88
2022-12-23T08:51:42.644Z,91.55
2022-12-23T08:54:11.345Z,92.21
2022-12-23T08:56:43.340Z,92.26
2022-12-23T08:59:19.254Z,92.05
2022-12-23T09:01:49.726Z,91.31
2022-12-23T09:04:18.753Z,91.59
2022-12-23T09:06:48.853Z,91.11
2022-12-23T09:09:17.875Z,90.13
2022-12-23T09:11:46.567Z,89.54
2022-12-23T09:14:15.378Z,89.76
2022-12-23T09:16:44.068Z,89.86
2022-12-23T09:19:12.799Z,90.44
2022-12-23T09:21:41.425Z,90.43
2022-12-23T09:24:11.390Z,89.69
2022-12-23T09:26:40.190Z,89.25
2022-12-23T09:29:08.855Z,88.99
2022-12-23T09:31:38.159Z,89.49
2022-12-23T09:34:07.631Z,89.84
2022-12-23T09:36:36.193Z,90.44
2022-12-23T09:39:05.319Z,90.38
2022-12-23T09:42:07.054Z,90.74
2022-12-23T09:44:58.613Z,90.48
2022-12-23T09:47:30.761Z,89.92
2022-12-23T09:50:03.476Z,90.07
2022-12-23T09:52:42.811Z,90.13
2022-12-23T09:55:14.083Z,90.40
2022-12-23T09:57:52.151Z,90.38
2022-12-23T10:00:23.292Z,90.71
2022-12-23T10:03:14.618Z,90.36
2022-12-23T10:06:02.613Z,90.34
2022-12-23T10:08:37.840Z,90.67
2022-12-23T10:11:15.192Z,90.62
2022-12-23T10:13:49.961Z,90.45
2022-12-23T10:16:22.432Z,90.40
2022-12-23T10:19:00.598Z,90.67
2022-12-23T10:21:42.223Z,90.74
2022-12-23T10:24:23.553Z,90.51
2022-12-23T10:26:55.681Z,90.41
2022-12-23T10:29:28.703Z,90.47
2022-12-23T10:32:19.703Z,90.34
2022-12-23T10:34:55.945Z,90.35
2022-12-23T10:37:35.840Z,90.54
2022-12-23T10:40:20.730Z,90.46
2022-12-23T10:43:04.216Z,90.71
2022-12-23T10:45:51.360Z,90.91
2022-12-23T10:48:48.051Z,90.98
2022-12-23T10:51:23.102Z,90.96
2022-12-23T10:53:57.641Z,91.03
2022-12-23T10:56:27.076Z,90.84
2022-12-23T10:59:00.547Z,90.94
2022-12-23T11:01:33.395Z,90.59
2022-12-23T11:04:09.067Z,90.74
2022-12-23T11:06:43.688Z,90.46
2022-12-23T11:09:21.249Z,90.83
2022-12-23T11:12:02.842Z,91.02
2022-12-23T11:14:40.164Z,90.68
2022-12-23T11:17:25.154Z,90.69
2022-12-23T11:20:15.432Z,90.46
2022-12-23T11:22:51.111Z,90.58
2022-12-23T11:25:29.998Z,90.72
2022-12-23T11:28:04.147Z,90.61
2022-12-23T11:30:37.669Z,90.83
2022-12-23T11:33:07.888Z,91.02
2022-12-23T11:35:38.327Z,91.05
2022-12-23T11:38:15.694Z,91.36
2022-12-23T11:40:48.363Z,91.36
2022-12-23T11:43:21.078Z,91.41
2022-12-23T11:45:49.784Z,91.22
2022-12-23T11:48:31.568Z,91.02
2022-12-23T11:51:03.139Z,91.04
2022-12-23T11:53:32.561Z,91.09
2022-12-23T11:56:05.835Z,91.08
2022-12-23T11:58:47.361Z,90.99
2022-12-23T12:01:21.581Z,90.71
2022-12-23T12:03:57.496Z,90.91
2022-12-23T12:06:28.178Z,91.05
2022-12-23T12:09:01.388Z,91.28
2022-12-23T12:11:37.647Z,91.38
2022-12-23T12:14:09.307Z,91.57
2022-12-23T12:16:56.133Z,91.49
2022-12-23T12:19:31.324Z,91.16
2022-12-23T12:22:07.050Z,91.15
2022-12-23T12:24:43.219Z,91.14
2022-12-23T12:27:13.406Z,90.94
2022-12-23T12:29:49.555Z,90.68
2022-12-23T12:32:24.189Z,90.73
2022-12-23T12:35:02.781Z,90.46
2022-12-23T12:37:42.129Z,90.52
2022-12-23T12:40:27.565Z,90.65
2022-12-23T12:43:01.757Z,90.92
2022-12-23T12:45:40.998Z,91.01
2022-12-23T12:48:31.759Z,90.96
2022-12-23T12:51:17.878Z,91.10
2022-12-23T12:54:07.679Z,91.08
2022-12-23T12:56:44.958Z,91.00
2022-12-23T12:59:20.829Z,90.96
2022-12-23T13:02:10.725Z,91.27
2022-12-23T13:05:20.815Z,91.29
2022-12-23T13:08:19.473Z,91.56
2022-12-23T13:10:53.289Z,91.70
2022-12-23T13:13:39.783Z,91.60
2022-12-23T13:16:26.416Z,91.53
2022-12-23T13:19:03.757Z,91.43
2022-12-23T13:21:41.721Z,91.25
2022-12-23T13:24:25.404Z,91.15
2022-12-23T13:27:07.200Z,90.96
2022-12-23T13:29:58.319Z,91.22
2022-12-23T13:32:47.032Z,92.09
2022-12-23T13:35:34.157Z,92.34
2022-12-23T13:38:22.127Z,92.50
2022-12-23T13:41:04.628Z,92.83
2022-12-23T13:43:46.385Z,91.76
2022-12-23T13:46:24.115Z,91.40
2022-12-23T13:49:04.964Z,91.29
2022-12-23T13:51:42.978Z,92.10
2022-12-23T13:54:28.182Z,91.32
2022-12-23T13:57:11.059Z,91.24
2022-12-23T13:59:42.620Z,91.07
2022-12-23T14:02:52.513Z,91.29
2022-12-23T14:05:35.226Z,91.53
2022-12-23T14:08:08.218Z,91.62
2022-12-23T14:10:38.133Z,91.69
2022-12-23T14:13:10.022Z,91.76
2022-12-23T14:15:57.989Z,91.73
2022-12-23T14:18:55.798Z,91.38
2022-12-23T14:21:38.924Z,91.26
2022-12-23T14:24:47.964Z,91.24
2022-12-23T14:27:36.678Z,91.22
2022-12-23T14:30:16.555Z,91.38
2022-12-23T14:32:51.191Z,90.82
2022-12-23T14:35:57.398Z,90.68
2022-12-23T14:38:32.696Z,90.66
2022-12-23T14:41:25.394Z,90.34
2022-12-23T14:43:59.883Z,90.57
2022-12-23T14:47:00.358Z,90.44
2022-12-23T14:49:42.963Z,90.62
2022-12-23T14:52:49.082Z,90.46
2022-12-23T14:55:47.738Z,90.68
2022-12-23T14:58:51.513Z,90.53
2022-12-23T15:01:27.533Z,90.47
2022-12-23T15:04:01.871Z,90.90
2022-12-23T15:06:38.200Z,90.86
2022-12-23T15:09:10.556Z,90.75
2022-12-23T15:11:42.299Z,90.70
2022-12-23T15:14:20.725Z,91.03
2022-12-23T15:16:49.518Z,90.91
2022-12-23T15:19:23.246Z,91.17
2022-12-23T15:22:02.002Z,91.07
2022-12-23T15:24:36.388Z,91.27
2022-12-23T15:27:26.407Z,91.53
2022-12-23T15:29:56.693Z,91.32
2022-12-23T15:32:28.033Z,90.94
2022-12-23T15:35:06.326Z,91.10
2022-12-23T15:37:35.827Z,90.89
2022-12-23T15:40:12.597Z,90.96
2022-12-23T15:42:49.912Z,91.07
2022-12-23T15:45:36.289Z,91.01
2022-12-23T15:48:23.846Z,91.37
2022-12-23T15:51:00.621Z,91.29
2022-12-23T15:53:34.753Z,91.44
2022-12-23T15:56:09.906Z,91.37
2022-12-23T15:58:43.485Z,91.74
2022-12-23T16:01:16.956Z,91.53
2022-12-23T16:03:54.395Z,91.47
2022-12-23T16:06:28.942Z,91.84
2022-12-23T16:09:01.150Z,91.82
2022-12-23T16:11:49.117Z,91.88
2022-12-23T16:14:34.305Z,91.59
2022-12-23T16:17:15.291Z,91.44
2022-12-23T16:19:47.922Z,91.47
2022-12-23T16:22:29.179Z,91.44
2022-12-23T16:25:20.259Z,91.60
2022-12-23T16:27:55.345Z,91.42
2022-12-23T16:30:30.456Z,91.83
2022-12-23T16:33:02.993Z,91.54
2022-12-23T16:35:38.255Z,91.31
2022-12-23T16:38:18.270Z,91.30
2022-12-23T16:40:49.539Z,91.19
2022-12-23T16:43:19.431Z,91.10
2022-12-23T16:45:53.137Z,90.95
2022-12-23T16:48:31.109Z,90.92
2022-12-23T16:51:00.386Z,91.32
2022-12-23T16:53:30.527Z,91.25
2022-12-23T16:56:01.088Z,91.16
2022-12-23T16:58:30.576Z,91.02
2022-12-23T17:00:59.395Z,91.31
2022-12-23T17:03:28.246Z,91.24
2022-12-23T17:05:57.292Z,91.31
2022-12-23T17:08:26.035Z,91.61
2022-12-23T17:10:58.364Z,91.45
2022-12-23T17:13:26.990Z,91.52
2022-12-23T17:15:55.642Z,91.61
2022-12-23T17:18:24.378Z,91.76
2022-12-23T17:20:53.029Z,91.87
2022-12-23T17:23:35.714Z,91.83
2022-12-23T17:26:05.773Z,91.91
2022-12-23T17:28:34.747Z,91.57
2022-12-23T17:31:08.607Z,91.47
2022-12-23T17:33:39.566Z,91.44
2022-12-23T17:36:08.775Z,91.18
2022-12-23T17:38:37.422Z,91.36
2022-12-23T17:41:07.993Z,91.40
2022-12-23T17:43:36.732Z,91.36
2022-12-23T17:46:06.072Z,91.41
2022-12-23T17:48:34.773Z,91.62
2022-12-23T17:51:03.509Z,91.54
2022-12-23T17:53:32.271Z,91.52
2022-12-23T17:56:00.875Z,91.61
2022-12-23T17:58:30.941Z,91.72
2022-12-23T18:00:59.738Z,91.62
2022-12-23T18:03:28.377Z,91.56
2022-12-23T18:06:01.617Z,91.40
2022-12-23T18:08:31.093Z,91.39
2022-12-23T18:11:00.923Z,91.54
2022-12-23T18:13:31.311Z,91.46
2022-12-23T18:16:00.072Z,91.36
2022-12-23T18:18:36.788Z,91.38
2022-12-23T18:21:21.731Z,91.48
2022-12-23T18:23:50.978Z,91.59
2022-12-23T18:26:19.687Z,91.64
2022-12-23T18:28:54.267Z,91.63
2022-12-23T18:31:27.358Z,91.57
2022-12-23T18:33:56.554Z,91.60
2022-12-23T18:36:27.869Z,91.44
2022-12-23T18:38:57.328Z,91.22
2022-12-23T18:41:28.096Z,91.13
2022-12-23T18:43:58.354Z,91.50
2022-12-23T18:46:27.065Z,91.42
2022-12-23T18:48:55.940Z,91.41
2022-12-23T18:51:24.527Z,91.18
2022-12-23T18:53:53.220Z,91.39
2022-12-23T18:56:22.793Z,91.41
2022-12-23T18:58:51.508Z,91.36
2022-12-23T19:01:21.667Z,91.51
2022-12-23T19:03:50.409Z,91.20
2022-12-23T19:06:19.271Z,91.44
2022-12-23T19:08:48.596Z,91.68
2022-12-23T19:11:21.535Z,91.59
2022-12-23T19:13:50.235Z,91.73
2022-12-23T19:16:22.634Z,91.49
2022-12-23T19:18:52.270Z,91.44
2022-12-23T19:21:21.672Z,91.66
2022-12-23T19:23:50.522Z,91.70
2022-12-23T19:26:19.642Z,91.71
2022-12-23T19:28:48.979Z,91.74
2022-12-23T19:31:20.986Z,91.77
2022-12-23T19:33:49.915Z,91.67
2022-12-23T19:36:22.792Z,91.97
2022-12-23T19:38:52.746Z,92.21
2022-12-23T19:41:21.652Z,92.07
2022-12-23T19:43:50.667Z,92.21
2022-12-23T19:46:21.368Z,92.11
2022-12-23T19:48:53.571Z,92.50
2022-12-23T19:51:22.553Z,92.41
2022-12-23T19:53:53.306Z,92.30
2022-12-23T19:56:22.764Z,92.27
2022-12-23T19:58:52.321Z,92.32
2022-12-23T20:01:25.206Z,92.24
2022-12-23T20:03:57.028Z,92.20
2022-12-23T20:06:28.401Z,92.24
2022-12-23T20:09:01.053Z,92.27
2022-12-23T20:11:32.726Z,92.25
2022-12-23T20:14:02.903Z,92.11
2022-12-23T20:16:35.523Z,92.27
2022-12-23T20:19:04.873Z,92.26
2022-12-23T20:21:34.126Z,92.32
2022-12-23T20:24:03.411Z,92.21
2022-12-23T20:26:32.473Z,92.19
2022-12-23T20:29:01.383Z,92.14
2022-12-23T20:31:34.378Z,92.02
2022-12-23T20:34:03.997Z,92.10
2022-12-23T20:36:35.359Z,91.95
2022-12-23T20:39:05.739Z,91.71
2022-12-23T20:41:34.941Z,91.65
2022-12-23T20:46:54.104Z,91.65
2022-12-23T20:49:23.060Z,91.68
2022-12-23T20:51:51.951Z,91.76
2022-12-23T20:54:24.932Z,91.87
2022-12-23T20:56:56.905Z,91.84
2022-12-23T20:59:25.681Z,92.00
2022-12-23T21:01:56.649Z,92.04
2022-12-23T21:04:25.549Z,91.98
2022-12-23T21:06:54.504Z,91.95
2022-12-23T21:09:23.155Z,92.19
2022-12-23T21:11:51.810Z,91.98
2022-12-23T21:14:20.621Z,92.12
2022-12-23T21:16:49.417Z,92.03
2022-12-23T21:19:23.411Z,92.13
2022-12-23T21:21:53.663Z,92.22
2022-12-23T21:24:22.814Z,92.26
2022-12-23T21:26:56.588Z,92.50
2022-12-23T21:29:26.760Z,92.28
2022-12-23T21:31:58.517Z,92.37
2022-12-23T21:34:28.666Z,92.14
2022-12-23T21:36:57.366Z,92.37
2022-12-23T21:39:26.106Z,92.38
2022-12-23T21:41:54.783Z,92.39
2022-12-23T21:44:23.613Z,92.38
2022-12-23T21:46:53.099Z,92.30
2022-12-23T21:49:22.662Z,92.41
2022-12-23T21:51:52.736Z,92.47
2022-12-23T21:54:22.219Z,92.43
2022-12-23T21:56:50.949Z,92.20
2022-12-23T21:59:19.664Z,92.24
2022-12-23T22:01:50.284Z,92.33
2022-12-23T22:04:19.088Z,92.27
2022-12-23T22:06:47.782Z,92.51
2022-12-23T22:09:20.575Z,92.70
2022-12-23T22:11:49.945Z,92.46
2022-12-23T22:14:20.826Z,92.46
2022-12-23T22:16:49.656Z,92.54
2022-12-23T22:19:18.623Z,92.51
2022-12-23T22:21:47.406Z,92.38
2022-12-23T22:24:17.481Z,92.57
2022-12-23T22:26:47.164Z,92.46
2022-12-23T22:29:15.992Z,92.54
2022-12-23T22:31:48.048Z,92.59
2022-12-23T22:34:20.448Z,92.71
2022-12-23T22:36:50.420Z,92.74
2022-12-23T22:39:22.925Z,92.77
2022-12-23T22:41:52.552Z,92.91
2022-12-23T22:44:21.987Z,92.66
2022-12-23T22:46:51.247Z,92.75
2022-12-23T22:49:20.153Z,92.62
2022-12-23T22:51:48.998Z,92.90
2022-12-23T22:54:17.653Z,92.99
2022-12-23T22:56:47.741Z,92.53
2022-12-23T22:59:22.231Z,92.63
2022-12-23T23:01:51.836Z,92.78
2022-12-23T23:04:21.077Z,92.86
2022-12-23T23:06:50.467Z,92.68
2022-12-23T23:09:22.637Z,92.72
2022-12-23T23:11:52.961Z,92.61
2022-12-23T23:14:22.196Z,92.58
2022-12-23T23:16:51.001Z,92.54
2022-12-23T23:19:20.672Z,92.68
2022-12-23T23:21:49.952Z,92.92
2022-12-23T23:24:18.674Z,92.76
2022-12-23T23:26:47.277Z,92.74
2022-12-23T23:29:17.333Z,92.63
2022-12-23T23:31:46.166Z,92.49
2022-12-23T23:34:15.104Z,92.46
2022-12-23T23:36:43.873Z,92.51
2022-12-23T23:39:13.948Z,92.81
2022-12-23T23:41:43.171Z,92.86
2022-12-23T23:44:12.623Z,92.84
2022-12-23T23:46:42.662Z,93.00
2022-12-23T23:49:11.328Z,92.76
2022-12-23T23:51:41.673Z,92.66
2022-12-23T23:54:10.966Z,92.55
2022-12-23T23:56:40.007Z,92.76
2022-12-23T23:59:09.574Z,92.51
